Погода Рах Гияна неделю

Нижняя Штирия, Словения

21 - 27 июня
  • 21июня
    Сегодня
    +21°
    +36°
    Ясно и безоблачно
    ВремяПогодаТемператураВлажностьДавлениеВетер, м/сВероятность осадков
    02:00Облачно с прояснениями+22°C86 %744 мм1.1 м/с2 %
    05:00Ясно и безоблачно+19°C94 %743 мм1.6 м/с2 %
    08:00Практически безоблачно+24°C83 %744 мм0.6 м/с2 %
    11:00Облачно с прояснениями+29°C64 %744 мм0.7 м/с2 %
    14:00Ясно и безоблачно+33°C51 %743 мм1.0 м/с2 %
    17:00Облачно с прояснениями+34°C33 %742 мм3.5 м/с12 %
    20:00Небольшая облачность+30°C61 %741 мм2.5 м/с6 %
    23:00Облачно с прояснениями+25°C66 %740 мм2.9 м/с2 %
  • 22июня
    Суббота
    +18°
    +29°
    Практически безоблачно
    ВремяПогодаТемператураВлажностьДавлениеВетер, м/сВероятность осадков
    02:00Практически безоблачно+24°C58 %739 мм2.7 м/с2 %
    05:00Ясно и безоблачно+21°C81 %739 мм1.4 м/с7 %
    08:00Небольшая облачность, возможен дождь с грозой+22°C72 %741 мм3.1 м/с24 %
    11:00Ясно и безоблачно+26°C53 %742 мм2.0 м/с14 %
    14:00Практически безоблачно+28°C47 %741 мм1.0 м/с21 %
    17:00Практически безоблачно+28°C47 %740 мм1.7 м/с20 %
    20:00Небольшая облачность+26°C58 %740 мм2.7 м/с23 %
    23:00Небольшая облачность+21°C66 %741 мм2.8 м/с27 %
  • 23июня
    Воскресенье
    +17°
    +28°
    Облачно с прояснениями
    ВремяПогодаТемператураВлажностьДавлениеВетер, м/сВероятность осадков
    02:00Небольшая облачность+18°C87 %741 мм3.4 м/с24 %
    05:00Практически безоблачно+19°C72 %741 мм2.6 м/с14 %
    08:00Практически безоблачно+21°C63 %742 мм3.6 м/с15 %
    11:00Небольшая облачность+25°C51 %743 мм5.2 м/с7 %
    14:00Облачно с прояснениями+27°C42 %743 мм5.2 м/с11 %
    17:00Облачно с прояснениями+27°C38 %742 мм5.0 м/с8 %
    20:00Практически безоблачно+25°C50 %743 мм3.2 м/с3 %
    23:00Небольшая облачность+21°C58 %744 мм3.1 м/с6 %
  • 24июня
    Понедельник
    +17°
    +28°
    Ясно и безоблачно
    ВремяПогодаТемператураВлажностьДавлениеВетер, м/сВероятность осадков
    02:00Ясно и безоблачно+19°C58 %744 мм4.0 м/с4 %
    05:00Облачно с прояснениями+18°C63 %745 мм3.5 м/с16 %
    08:00Облачно с прояснениями+20°C64 %746 мм2.4 м/с23 %
    11:00Ясно и безоблачно+25°C47 %746 мм4.7 м/с18 %
    14:00Ясно и безоблачно+27°C41 %745 мм4.2 м/с25 %
    17:00Практически безоблачно+27°C41 %744 мм3.8 м/с23 %
    20:00Практически безоблачно+25°C53 %744 мм2.6 м/с14 %
    23:00Ясно и безоблачно+21°C56 %745 мм3.4 м/с12 %
Мы используем cookies
Соглашаюсь